Keechi, Texas
Current Conditions -  °F | °C
As of 5:35 PM on Saturday 20 Dec 2014 (Local Time) from KLXY Reporting Station
Overcast Overcast  
Wind Chill: 49°   Ceiling: 1600
Heat Index: 49°   Visibility: 10mi
Dew Point: 46°   Wind: 3mph
Humidity: 87%   Direction: 360°N
Pressure: 30.16"   Gusts: NA
Location:  31.4723°N, 96.0615°W
Report Text: KLXY 202335Z AUTO 36003KT 10SM OVC016 10/08 A3016 RMK AO2 T00970077
Loading
Personal Weather Stations






























Interactive Weather Map New forecast layout! Learn more

10-Day Weather Forecast

Advertisements
Track Severe Weather on mobile